Coningsby, United Kingdom
Current Conditions -  °F | °C
As of 6:18 AM on Friday 31 Oct 2014 (Local Time) from EGXC Reporting Station
Haze Haze  
Wind Chill: 13°   Ceiling: 23000
Heat Index: 13°   Visibility: 1.8mi
Dew Point: 13°   Wind: 8mph
Humidity: 100%   Direction: 170°S
Pressure: 29.97"   Gusts: NA
Location:  53.11°N, 0.18°W
Report Text: EGXC 310618Z 17007KT 3000 BR SCT004 BKN230 13/13 Q1015 YLO2
Loading
Personal Weather Stations






























Interactive Weather Map
Tropical Storm Tracking
New forecast layout! Learn more

10-Day Weather Forecast

Advertisements
Track Severe Weather on mobile